Terminal Aerodrome Forecast
Issued by NWS Amarillo, TX

Current Version | Previous Version | Text Only | Print | Product List | Glossary Off
Versions: 1 2 3 4 5 6 7 8 9 10 11 12 13 14

047
FTUS44 KAMA 231725
TAFDHT
TAF
KDHT 231725Z 2318/2418 03023G33KT P6SM BKN120
     FM240100 02010KT P6SM BKN120
     FM240600 34009KT P6SM SKC
     FM241500 34020G30KT P6SM SKC=

USA.gov is the U.S. government's official web portal to all federal, state and local government web resources and services.